Time;durP1;ratioP1;P1;durP2;ratioP2;P2;SDS_P1;SDS_P2;PMS_P1;PMS_P2;Temp;Humidity;BMP_temperature;BMP_pressure;BME280_temperature;BME280_humidity;BME280_pressure;Samples;Min_cycle;Max_cycle;Signal;HPM_P1;HPM_P2
2022/11/27 00:01:44;;;;;;;;;5.00;5.00;;;;;20.10;57.37;102209.64;105643;1286;23265;-61
2022/11/27 00:04:11;;;;;;;;;5.00;5.00;;;;;20.09;57.69;102208.02;105607;1289;19667;-60
2022/11/27 00:06:39;;;;;;;;;5.00;5.00;;;;;20.09;57.56;102211.33;105621;1297;21589;-61
2022/11/27 00:09:06;;;;;;;;;7.00;5.00;;;;;20.09;57.43;102205.66;105589;1279;20783;-61
2022/11/27 00:11:34;;;;;;;;;6.00;5.00;;;;;20.10;57.64;102203.08;105612;1295;19520;-60
2022/11/27 00:14:01;;;;;;;;;5.00;4.00;;;;;20.10;57.58;102205.43;105634;1279;21652;-61
2022/11/27 00:16:29;;;;;;;;;7.50;7.00;;;;;20.10;57.67;102210.11;105569;1279;150997;-61
2022/11/27 00:18:56;;;;;;;;;5.00;4.50;;;;;20.09;57.60;102212.01;105612;1282;19333;-61
2022/11/27 00:21:24;;;;;;;;;5.00;4.00;;;;;20.11;57.68;102209.74;105632;1287;20091;-61
2022/11/27 00:23:51;;;;;;;;;7.00;7.00;;;;;20.11;57.46;102205.18;105608;1279;19349;-60
2022/11/27 00:26:18;;;;;;;;;5.00;5.00;;;;;20.10;57.53;102206.52;105616;1289;23531;-60
2022/11/27 00:28:46;;;;;;;;;5.00;5.00;;;;;20.10;57.35;102210.31;105660;1300;20417;-61
2022/11/27 00:31:13;;;;;;;;;8.00;7.00;;;;;20.12;57.31;102211.10;105583;1272;19243;-61
2022/11/27 00:33:41;;;;;;;;;7.00;7.00;;;;;20.11;57.44;102213.87;105594;1274;19325;-61
2022/11/27 00:36:08;;;;;;;;;8.00;7.00;;;;;20.10;57.31;102208.14;105590;1289;20098;-61
2022/11/27 00:38:37;;;;;;;;;4.00;4.00;;;;;20.10;57.17;102212.14;105611;1279;19643;-61
2022/11/27 00:41:04;;;;;;;;;7.00;5.00;;;;;20.11;57.40;102208.99;105596;1272;23522;-61
2022/11/27 00:43:32;;;;;;;;;7.00;6.00;;;;;20.11;57.32;102206.09;105663;1274;20018;-60
2022/11/27 00:45:59;;;;;;;;;8.00;7.00;;;;;20.11;57.42;102208.77;105565;1298;21074;-62
2022/11/27 00:48:26;;;;;;;;;5.00;4.00;;;;;20.11;57.27;102212.94;105577;1279;19323;-60
2022/11/27 00:50:54;;;;;;;;;7.00;5.00;;;;;20.11;57.47;102214.65;105600;1279;22290;-60
2022/11/27 00:53:21;;;;;;;;;5.00;4.00;;;;;20.10;57.38;102213.22;105616;1279;19228;-60
2022/11/27 00:55:49;;;;;;;;;8.00;7.00;;;;;20.09;57.41;102216.55;105676;1297;22636;-61
2022/11/27 00:58:16;;;;;;;;;5.00;4.00;;;;;20.09;57.44;102215.30;105647;1274;21896;-61
2022/11/27 01:00:44;;;;;;;;;7.00;5.00;;;;;20.10;57.30;102212.85;105614;1296;19750;-61
2022/11/27 01:03:11;;;;;;;;;5.00;5.00;;;;;20.09;57.31;102213.08;105590;1295;23521;-61
2022/11/27 01:05:38;;;;;;;;;5.00;5.00;;;;;20.09;57.29;102212.00;105608;1297;20441;-61
2022/11/27 01:08:06;;;;;;;;;5.00;5.00;;;;;20.09;57.52;102207.48;105575;1282;19090;-61
2022/11/27 01:10:33;;;;;;;;;;;;;;;20.09;57.26;102204.25;105685;1289;20640;-61
2022/11/27 01:13:01;;;;;;;;;5.00;5.00;;;;;20.09;57.45;102203.70;105632;1287;22260;-62
2022/11/27 01:15:28;;;;;;;;;8.00;7.00;;;;;20.10;57.20;102205.83;105603;1279;19416;-61
2022/11/27 01:17:55;;;;;;;;;4.00;4.00;;;;;20.09;57.31;102202.79;105578;1279;21207;-61
2022/11/27 01:20:23;;;;;;;;;7.00;5.00;;;;;20.08;57.42;102197.28;105611;1274;23428;-62
2022/11/27 01:22:50;;;;;;;;;6.00;5.00;;;;;20.08;57.50;102202.90;105625;1280;19198;-60
2022/11/27 01:25:18;;;;;;;;;5.00;5.00;;;;;20.09;57.15;102207.34;105628;1297;19584;-62
2022/11/27 01:27:45;;;;;;;;;4.00;4.00;;;;;20.08;57.29;102206.73;105608;1290;21875;-61
2022/11/27 01:30:13;;;;;;;;;5.00;4.00;;;;;20.08;57.51;102210.84;105591;1294;19248;-61
2022/11/27 01:32:40;;;;;;;;;4.00;4.00;;;;;20.08;57.27;102216.14;105608;1284;20881;-61
2022/11/27 01:35:07;;;;;;;;;5.00;5.00;;;;;20.09;57.09;102215.91;105589;1279;21789;-61
2022/11/27 01:37:35;;;;;;;;;5.00;4.00;;;;;20.08;57.26;102217.20;105661;1290;19633;-61
2022/11/27 01:40:02;;;;;;;;;5.00;5.00;;;;;20.09;57.13;102219.70;105609;1297;19507;-61
2022/11/27 01:42:30;;;;;;;;;7.00;4.00;;;;;20.08;57.13;102219.09;105587;1296;21569;-62
2022/11/27 01:44:57;;;;;;;;;3.00;3.00;;;;;20.07;57.17;102216.98;105602;1279;19705;-62
2022/11/27 01:47:25;;;;;;;;;4.50;4.50;;;;;20.07;57.12;102209.15;105593;1272;20964;-59
2022/11/27 01:49:52;;;;;;;;;6.00;5.00;;;;;20.08;57.04;102211.46;105580;1278;20178;-61
2022/11/27 01:52:19;;;;;;;;;5.00;5.00;;;;;20.08;56.99;102214.33;105603;1297;19611;-61
2022/11/27 01:54:47;;;;;;;;;4.00;4.00;;;;;20.06;57.19;102210.66;105620;1274;19619;-61
2022/11/27 01:57:14;;;;;;;;;5.00;4.00;;;;;20.07;57.00;102210.75;105581;1280;23382;-61
2022/11/27 01:59:42;;;;;;;;;4.50;4.00;;;;;20.07;57.25;102214.98;105637;1279;19615;-61
2022/11/27 02:02:09;;;;;;;;;5.00;5.00;;;;;20.06;57.21;102217.59;105600;1281;23038;-61
2022/11/27 02:04:37;;;;;;;;;4.50;4.50;;;;;20.06;57.14;102213.05;105626;1278;22050;-62
2022/11/27 02:07:04;;;;;;;;;4.00;4.00;;;;;20.07;56.98;102215.54;105598;1297;19925;-60
2022/11/27 02:09:32;;;;;;;;;5.00;5.00;;;;;20.06;57.09;102214.73;105604;1279;19266;-61
2022/11/27 02:11:59;;;;;;;;;4.00;4.00;;;;;20.06;57.05;102210.17;105570;1272;20099;-61
2022/11/27 02:14:26;;;;;;;;;4.00;4.00;;;;;20.06;56.82;102208.91;105590;1279;19295;-61
2022/11/27 02:16:54;;;;;;;;;7.00;5.00;;;;;20.06;56.96;102208.52;105631;1279;19279;-61
2022/11/27 02:19:21;;;;;;;;;5.00;4.00;;;;;20.04;56.91;102212.46;105640;1297;20069;-61
2022/11/27 02:21:49;;;;;;;;;3.00;3.00;;;;;20.05;56.94;102211.48;105624;1279;20951;-61
2022/11/27 02:24:16;;;;;;;;;8.00;7.00;;;;;20.06;56.98;102214.34;105626;1289;19135;-61
2022/11/27 02:26:43;;;;;;;;;5.00;5.00;;;;;20.05;56.90;102219.08;105590;1280;20265;-61
2022/11/27 02:29:11;;;;;;;;;7.00;7.00;;;;;20.04;57.09;102217.06;105638;1289;20874;-61
2022/11/27 02:31:38;;;;;;;;;4.00;4.00;;;;;20.04;56.86;102219.95;105614;1280;19413;-61
2022/11/27 02:34:06;;;;;;;;;7.00;5.00;;;;;20.04;56.81;102209.98;105567;1272;20105;-62
2022/11/27 02:36:33;;;;;;;;;5.00;5.00;;;;;20.04;56.76;102217.89;105591;1271;19225;-60
2022/11/27 02:39:01;;;;;;;;;5.00;4.00;;;;;20.04;56.87;102213.08;105628;1275;19290;-60
2022/11/27 02:41:28;;;;;;;;;;;;;;;20.04;56.90;102217.58;105604;1271;20079;-62
2022/11/27 02:43:56;;;;;;;;;5.00;5.00;;;;;20.05;56.85;102218.81;105585;1274;19354;-61
2022/11/27 02:46:23;;;;;;;;;7.00;5.00;;;;;20.03;56.95;102215.63;105631;1300;19230;-61
2022/11/27 02:48:51;;;;;;;;;7.00;5.00;;;;;20.04;56.66;102212.54;105586;1274;22669;-60
2022/11/27 02:51:18;;;;;;;;;5.00;5.00;;;;;20.04;56.89;102215.75;105601;1294;19603;-59
2022/11/27 02:53:45;;;;;;;;;;;;;;;20.04;56.73;102214.85;105590;1279;19331;-61
2022/11/27 02:56:13;;;;;;;;;5.00;5.00;;;;;20.03;56.78;102211.50;105635;1302;20076;-62
2022/11/27 02:58:40;;;;;;;;;4.50;4.00;;;;;20.03;56.75;102214.22;105581;1297;22609;-61
2022/11/27 03:01:08;;;;;;;;;5.00;5.00;;;;;20.03;56.72;102213.50;105600;1287;23576;-61
2022/11/27 03:03:35;;;;;;;;;3.00;3.00;;;;;20.03;56.88;102221.64;105619;1295;20252;-61
2022/11/27 03:06:03;;;;;;;;;7.00;5.00;;;;;20.03;56.81;102220.35;105585;1281;19650;-61
2022/11/27 03:08:30;;;;;;;;;5.00;4.00;;;;;20.02;56.80;102216.83;105551;1279;19660;-62
2022/11/27 03:10:58;;;;;;;;;5.00;5.00;;;;;20.01;56.75;102214.52;105624;1294;19983;-61
2022/11/27 03:13:25;;;;;;;;;5.00;4.00;;;;;20.01;56.76;102218.17;105663;1297;19878;-62
2022/11/27 03:15:52;;;;;;;;;7.00;5.00;;;;;20.02;56.66;102220.67;105651;1281;19279;-61
2022/11/27 03:18:20;;;;;;;;;5.00;4.50;;;;;20.02;56.64;102221.19;105604;1280;23025;-61
2022/11/27 03:20:47;;;;;;;;;;;;;;;20.01;56.45;102209.98;105657;1279;19253;-62
2022/11/27 03:23:15;;;;;;;;;3.00;3.00;;;;;20.01;56.66;102204.20;105623;1272;19324;-62
2022/11/27 03:25:42;;;;;;;;;4.00;4.00;;;;;20.01;56.46;102198.20;105690;1286;23316;-61
2022/11/27 03:28:10;;;;;;;;;4.00;4.00;;;;;20.02;56.83;102199.07;105592;1288;19427;-62
2022/11/27 03:30:37;;;;;;;;;5.00;5.00;;;;;20.01;56.48;102203.45;105579;1279;19363;-61
2022/11/27 03:33:05;;;;;;;;;4.00;4.00;;;;;20.02;56.50;102202.67;105605;1287;21789;-61
2022/11/27 03:35:32;;;;;;;;;;;;;;;20.02;56.59;102205.40;105629;1279;19634;-61
2022/11/27 03:38:00;;;;;;;;;4.50;4.50;;;;;20.01;56.41;102201.64;105598;1279;23524;-62
2022/11/27 03:40:27;;;;;;;;;4.00;4.00;;;;;20.00;56.60;102194.28;105663;1279;20509;-61
2022/11/27 03:42:54;;;;;;;;;4.00;4.00;;;;;20.01;56.39;102202.59;105617;1295;23089;-61
2022/11/27 03:45:22;;;;;;;;;7.00;4.00;;;;;20.01;56.34;102209.84;105598;1272;20886;-61
2022/11/27 03:47:49;;;;;;;;;4.00;4.00;;;;;20.01;56.46;102212.52;105588;1295;23097;-62
2022/11/27 03:50:17;;;;;;;;;4.00;4.00;;;;;20.01;56.60;102211.48;105618;1280;19236;-62
2022/11/27 03:52:44;;;;;;;;;5.00;4.00;;;;;20.01;56.37;102208.95;105673;1294;20926;-61
2022/11/27 03:55:12;;;;;;;;;4.00;4.00;;;;;20.01;56.28;102212.36;105592;1272;20403;-61
2022/11/27 03:57:39;;;;;;;;;4.00;4.00;;;;;20.00;56.63;102209.35;105588;1279;23121;-61
2022/11/27 04:00:07;;;;;;;;;4.00;4.00;;;;;20.00;56.41;102216.83;105595;1279;19719;-62
2022/11/27 04:02:34;;;;;;;;;5.00;5.00;;;;;19.99;56.29;102229.02;105568;1297;21813;-62
2022/11/27 04:05:01;;;;;;;;;5.00;4.00;;;;;20.00;56.11;102221.36;105606;1279;19324;-60
2022/11/27 04:07:29;;;;;;;;;4.50;4.50;;;;;20.00;56.29;102215.54;105634;1271;19732;-60
2022/11/27 04:09:56;;;;;;;;;4.00;4.00;;;;;20.00;56.38;102210.67;105581;1281;23151;-60
2022/11/27 04:12:24;;;;;;;;;4.00;4.00;;;;;19.99;56.34;102214.91;105623;1279;19109;-60
2022/11/27 04:14:51;;;;;;;;;7.00;4.50;;;;;20.00;56.25;102223.16;105637;1289;20593;-61
2022/11/27 04:17:19;;;;;;;;;9.00;6.00;;;;;20.00;56.31;102227.86;105585;1295;20127;-60
2022/11/27 04:19:46;;;;;;;;;4.00;4.00;;;;;20.00;56.24;102226.40;105640;1296;19233;-60
2022/11/27 04:22:13;;;;;;;;;5.00;4.00;;;;;19.99;56.27;102228.71;105627;1272;23605;-62
2022/11/27 04:24:41;;;;;;;;;4.00;4.00;;;;;19.99;56.12;102227.77;105640;1279;19975;-60
2022/11/27 04:27:08;;;;;;;;;;;;;;;19.98;56.33;102232.23;105620;1297;19650;-61
2022/11/27 04:29:36;;;;;;;;;7.00;5.00;;;;;19.98;56.31;102227.36;105639;1279;19065;-61
2022/11/27 04:32:04;;;;;;;;;5.00;5.00;;;;;19.98;56.20;102233.31;105592;1279;23722;-60
2022/11/27 04:34:31;;;;;;;;;4.50;4.00;;;;;19.98;56.20;102235.27;105638;1297;19234;-60
2022/11/27 04:36:58;;;;;;;;;5.00;4.00;;;;;19.99;56.15;102234.17;105597;1272;19278;-61
2022/11/27 04:39:26;;;;;;;;;4.50;4.50;;;;;19.98;56.04;102232.60;105481;1289;20363;-61
2022/11/27 04:41:53;;;;;;;;;5.00;4.00;;;;;19.98;56.06;102228.58;105574;1279;19596;-60
2022/11/27 04:44:22;;;;;;;;;5.00;5.00;;;;;19.98;56.15;102231.12;105609;1272;19244;-61
2022/11/27 04:46:49;;;;;;;;;2.00;2.00;;;;;19.97;55.95;102225.58;105720;1286;20148;-60
2022/11/27 04:49:16;;;;;;;;;5.00;5.00;;;;;19.98;56.26;102223.17;105596;1295;23143;-61
2022/11/27 04:51:44;;;;;;;;;5.00;5.00;;;;;19.97;56.10;102213.23;105642;1289;19175;-60
2022/11/27 04:54:12;;;;;;;;;4.00;4.00;;;;;19.98;55.93;102212.66;105614;1295;21477;-60
2022/11/27 04:56:39;;;;;;;;;4.00;4.00;;;;;19.98;55.93;102210.09;105619;1288;19331;-60
2022/11/27 04:59:06;;;;;;;;;4.00;4.00;;;;;19.96;56.06;102206.23;105636;1289;19454;-60
2022/11/27 05:01:34;;;;;;;;;5.00;5.00;;;;;19.98;56.06;102205.04;105632;1297;20098;-61
2022/11/27 05:04:01;;;;;;;;;7.00;5.00;;;;;19.98;55.75;102207.21;105625;1280;21013;-60
2022/11/27 05:06:29;;;;;;;;;4.00;4.00;;;;;19.97;55.89;102209.59;105568;1286;19282;-59
2022/11/27 05:09:00;;;;;;;;;6.00;6.00;;;;;19.98;55.95;102208.68;105523;1279;21563;-60
2022/11/27 05:11:28;;;;;;;;;5.00;5.00;;;;;19.97;55.91;102199.44;105504;1288;21364;-60
2022/11/27 05:16:36;;;;;;;;;4.50;4.00;;;;;19.96;56.01;102197.55;105677;1280;20099;-60
2022/11/27 05:19:04;;;;;;;;;7.00;7.00;;;;;19.96;55.75;102194.84;105588;1280;22972;-59
2022/11/27 05:21:31;;;;;;;;;4.00;4.00;;;;;19.97;55.95;102191.84;105584;1274;19415;-60
2022/11/27 05:23:59;;;;;;;;;7.00;5.00;;;;;19.97;55.98;102182.42;105590;1272;21530;-60
2022/11/27 05:26:26;;;;;;;;;4.00;4.00;;;;;19.96;55.79;102188.66;105656;1294;24561;-59
2022/11/27 05:28:53;;;;;;;;;4.00;4.00;;;;;19.97;55.83;102189.70;105639;1297;20718;-60
2022/11/27 05:31:21;;;;;;;;;2.00;2.00;;;;;19.96;55.97;102185.57;105594;1278;21725;-61
2022/11/27 05:33:48;;;;;;;;;;;;;;;19.96;55.76;102186.09;105600;1279;20869;-60
2022/11/27 05:36:16;;;;;;;;;7.00;5.00;;;;;19.96;55.80;102184.88;105579;1271;20472;-59
2022/11/27 05:38:43;;;;;;;;;2.00;2.00;;;;;19.96;55.65;102179.96;105584;1275;20207;-60
2022/11/27 05:41:11;;;;;;;;;4.50;4.50;;;;;19.96;55.81;102180.02;105602;1279;23133;-60
2022/11/27 05:43:38;;;;;;;;;5.00;5.00;;;;;19.95;55.84;102174.95;105633;1297;21426;-60
2022/11/27 05:46:06;;;;;;;;;5.00;4.00;;;;;19.96;55.82;102177.27;105532;1288;21684;-60
2022/11/27 05:48:34;;;;;;;;;4.00;4.00;;;;;19.96;55.87;102172.02;105607;1271;19216;-60
2022/11/27 05:51:01;;;;;;;;;8.00;7.00;;;;;19.96;55.63;102170.16;105617;1301;19292;-60
2022/11/27 05:53:29;;;;;;;;;4.00;4.00;;;;;19.96;55.66;102171.10;105625;1282;20270;-60
2022/11/27 05:55:56;;;;;;;;;5.00;5.00;;;;;19.95;55.93;102169.70;105649;1279;22196;-58
2022/11/27 05:58:23;;;;;;;;;;;;;;;19.96;55.78;102167.30;105641;1287;24574;-60
2022/11/27 06:00:51;;;;;;;;;5.00;5.00;;;;;19.94;55.60;102168.73;105656;1281;20104;-61
2022/11/27 06:03:18;;;;;;;;;4.00;3.00;;;;;19.95;55.85;102172.11;105566;1279;19755;-61
2022/11/27 06:05:46;;;;;;;;;4.00;4.00;;;;;19.96;55.65;102172.95;105586;1297;20908;-61
2022/11/27 06:08:13;;;;;;;;;5.00;4.00;;;;;19.94;55.70;102170.88;105629;1281;22291;-61
2022/11/27 06:10:40;;;;;;;;;4.00;4.00;;;;;19.95;55.48;102172.45;105659;1301;19454;-61
2022/11/27 06:13:08;;;;;;;;;5.00;4.00;;;;;19.95;55.54;102165.69;105612;1280;20853;-61
2022/11/27 06:15:35;;;;;;;;;4.50;4.00;;;;;19.96;55.54;102170.70;105630;1271;23619;-61
2022/11/27 06:18:03;;;;;;;;;5.00;4.00;;;;;19.96;55.58;102166.71;105600;1279;19233;-61
2022/11/27 06:20:30;;;;;;;;;4.00;4.00;;;;;19.95;55.57;102168.77;105635;1281;24180;-61
2022/11/27 06:22:58;;;;;;;;;5.00;4.00;;;;;19.95;55.52;102168.64;105592;1272;21730;-61
2022/11/27 06:25:25;;;;;;;;;5.50;4.00;;;;;19.95;55.44;102175.20;105627;1300;20376;-61
2022/11/27 06:27:52;;;;;;;;;;;;;;;19.94;55.48;102173.45;105603;1297;20751;-61
2022/11/27 06:30:20;;;;;;;;;4.00;4.00;;;;;19.94;55.58;102181.08;105617;1278;23680;-61
2022/11/27 06:32:48;;;;;;;;;4.00;3.00;;;;;19.93;55.61;102182.20;105614;1291;19464;-61
2022/11/27 06:35:15;;;;;;;;;4.00;4.00;;;;;19.94;55.40;102179.93;105575;1279;19889;-61
2022/11/27 06:37:42;;;;;;;;;4.00;4.00;;;;;19.94;55.47;102185.95;105619;1291;22103;-61
2022/11/27 06:40:10;;;;;;;;;4.00;4.00;;;;;19.93;55.36;102183.48;105621;1289;19240;-60
2022/11/27 06:42:37;;;;;;;;;5.00;4.00;;;;;19.93;55.42;102185.69;105592;1289;19607;-61
2022/11/27 06:45:05;;;;;;;;;6.00;5.00;;;;;19.94;55.42;102189.44;105587;1271;24563;-61
2022/11/27 06:47:32;;;;;;;;;6.00;4.00;;;;;19.95;55.52;102185.34;105628;1279;18963;-61
2022/11/27 06:50:00;;;;;;;;;4.00;2.00;;;;;19.94;55.41;102185.27;105658;1279;23065;-61
2022/11/27 06:52:27;;;;;;;;;11.00;5.00;;;;;19.94;55.36;102186.30;105631;1297;20124;-61
2022/11/27 06:54:54;;;;;;;;;4.00;4.00;;;;;19.93;55.63;102183.86;105694;1295;19087;-60
2022/11/27 06:57:22;;;;;;;;;4.00;4.00;;;;;19.93;55.40;102187.15;105677;1281;20017;-60
2022/11/27 06:59:49;;;;;;;;;7.00;5.00;;;;;19.93;55.29;102192.38;105657;1281;21737;-61
2022/11/27 07:02:17;;;;;;;;;4.50;4.00;;;;;19.94;55.50;102188.70;105676;1271;23510;-61
2022/11/27 07:04:44;;;;;;;;;5.00;4.00;;;;;19.93;55.35;102192.07;105682;1297;26443;-61
2022/11/27 07:07:12;;;;;;;;;5.00;4.00;;;;;19.92;55.34;102195.36;105648;1279;20071;-59
2022/11/27 07:09:39;;;;;;;;;5.00;5.00;;;;;19.94;55.18;102195.17;105664;1297;23640;-60
2022/11/27 07:12:07;;;;;;;;;7.00;7.00;;;;;19.96;55.37;102186.87;105680;1271;19259;-61
2022/11/27 07:14:34;;;;;;;;;6.00;6.00;;;;;19.96;55.38;102183.74;105652;1289;21650;-61
2022/11/27 07:17:02;;;;;;;;;4.50;4.50;;;;;19.96;55.52;102179.65;105617;1280;23383;-60
2022/11/27 07:19:29;;;;;;;;;5.00;5.00;;;;;19.97;55.66;102183.35;105609;1279;19184;-61
2022/11/27 07:21:56;;;;;;;;;7.00;5.00;;;;;19.98;55.98;102189.80;105603;1279;20056;-61
2022/11/27 07:24:24;;;;;;;;;4.00;4.00;;;;;19.96;56.00;102190.64;105643;1281;19749;-59
2022/11/27 07:26:51;;;;;;;;;6.00;6.00;;;;;19.96;56.04;102195.40;105608;1280;21144;-61
2022/11/27 07:29:19;;;;;;;;;5.00;4.00;;;;;19.97;56.01;102192.96;105546;1272;21968;-61
2022/11/27 07:31:46;;;;;;;;;4.00;4.00;;;;;19.96;56.16;102196.31;105677;1297;19160;-61
2022/11/27 07:34:14;;;;;;;;;7.00;5.00;;;;;19.96;56.16;102196.63;105623;1288;26704;-61
2022/11/27 07:36:42;;;;;;;;;7.00;5.00;;;;;19.96;56.13;102192.14;105623;1288;21590;-61
2022/11/27 07:39:09;;;;;;;;;10.00;7.00;;;;;19.97;56.00;102192.80;105632;1271;22987;-61
2022/11/27 07:41:37;;;;;;;;;4.00;4.00;;;;;19.96;56.02;102194.09;105663;1279;19290;-61
2022/11/27 07:44:04;;;;;;;;;8.67;7.67;;;;;19.96;56.03;102191.05;105649;1279;22387;-61
2022/11/27 07:46:31;;;;;;;;;5.00;5.00;;;;;19.97;55.91;102190.02;105665;1300;19293;-61
2022/11/27 07:49:00;;;;;;;;;5.00;5.00;;;;;19.96;56.02;102184.85;105664;1272;19536;-60
2022/11/27 07:51:27;;;;;;;;;7.00;4.00;;;;;19.97;55.83;102191.33;105670;1275;20114;-61
2022/11/27 07:53:54;;;;;;;;;6.00;6.00;;;;;19.96;55.85;102196.45;105654;1279;23012;-62
2022/11/27 07:56:22;;;;;;;;;;;;;;;19.97;55.98;102198.59;105681;1279;19253;-62
2022/11/27 07:58:49;;;;;;;;;;;;;;;19.96;55.82;102202.25;105730;1300;23004;-62
2022/11/27 08:01:17;;;;;;;;;5.00;5.00;;;;;19.97;55.88;102207.62;105669;1271;19228;-61
2022/11/27 08:03:44;;;;;;;;;5.00;5.00;;;;;19.97;55.86;102201.44;105679;1296;19260;-62
2022/11/27 08:06:12;;;;;;;;;5.00;5.00;;;;;19.97;55.94;102200.96;105682;1279;21770;-61
2022/11/27 08:08:39;;;;;;;;;8.00;5.00;;;;;19.95;55.86;102204.54;105669;1279;19605;-62
2022/11/27 08:11:06;;;;;;;;;5.00;4.00;;;;;19.95;55.83;102203.88;105652;1279;19274;-62
2022/11/27 08:13:34;;;;;;;;;;;;;;;19.95;55.75;102214.48;105679;1288;20228;-62
2022/11/27 08:16:01;;;;;;;;;4.00;4.00;;;;;19.95;55.76;102223.05;105680;1279;19218;-61
2022/11/27 08:18:29;;;;;;;;;7.00;4.00;;;;;19.96;55.88;102219.73;105624;1280;20901;-62
2022/11/27 08:20:56;;;;;;;;;5.00;5.00;;;;;19.93;55.83;102214.34;105617;1272;21549;-62
2022/11/27 08:23:24;;;;;;;;;7.00;5.00;;;;;19.95;55.97;102219.58;105658;1279;19199;-61
2022/11/27 08:25:51;;;;;;;;;7.00;5.00;;;;;19.95;56.06;102215.39;105694;1279;21071;-62
2022/11/27 08:28:18;;;;;;;;;5.00;4.50;;;;;19.97;55.82;102217.41;105616;1279;23912;-60
2022/11/27 08:30:46;;;;;;;;;4.00;4.00;;;;;20.00;55.91;102218.30;105627;1295;19539;-61
2022/11/27 08:33:14;;;;;;;;;5.50;4.50;;;;;20.02;55.89;102214.52;105624;1272;23162;-61
2022/11/27 08:35:42;;;;;;;;;6.00;5.00;;;;;20.05;55.80;102219.69;105609;1301;21519;-61
2022/11/27 08:38:09;;;;;;;;;5.00;5.00;;;;;20.07;56.31;102222.18;105648;1279;23140;-64
2022/11/27 08:40:37;;;;;;;;;5.00;5.00;;;;;20.10;56.53;102221.06;105622;1288;19666;-61
2022/11/27 08:43:04;;;;;;;;;5.00;4.00;;;;;20.11;56.60;102223.66;105533;1271;20253;-63
2022/11/27 08:45:32;;;;;;;;;5.00;5.00;;;;;20.12;57.10;102224.30;105573;1279;19602;-63
2022/11/27 08:48:00;;;;;;;;;4.00;4.00;;;;;20.12;57.11;102222.33;105577;1297;19354;-63
2022/11/27 08:50:27;;;;;;;;;8.00;7.00;;;;;20.12;57.16;102222.52;105563;1279;21483;-62
2022/11/27 08:52:55;;;;;;;;;9.00;8.00;;;;;20.11;56.89;102221.73;105713;1296;19656;-62
2022/11/27 08:55:22;;;;;;;;;7.00;7.00;;;;;20.10;56.79;102216.83;105653;1279;19354;-61
2022/11/27 08:57:49;;;;;;;;;7.00;5.00;;;;;20.12;56.76;102218.17;105671;1297;20101;-62
2022/11/27 09:00:17;;;;;;;;;5.00;5.00;;;;;20.12;56.70;102222.11;105628;1288;22277;-63
2022/11/27 09:02:44;;;;;;;;;5.00;5.00;;;;;20.14;57.34;102226.48;105644;1271;21099;-63
2022/11/27 09:05:12;;;;;;;;;11.00;8.00;;;;;20.14;57.21;102223.39;105555;1288;21834;-63
2022/11/27 09:07:40;;;;;;;;;8.00;7.00;;;;;20.13;57.17;102221.64;105674;1297;19283;-64
2022/11/27 09:10:08;;;;;;;;;7.50;7.00;;;;;20.13;57.21;102222.01;105643;1294;19636;-64
2022/11/27 09:12:35;;;;;;;;;8.00;7.00;;;;;20.12;57.11;102215.93;105588;1291;21856;-64
2022/11/27 09:15:03;;;;;;;;;5.00;5.00;;;;;20.11;57.24;102217.89;105646;1272;19182;-63
2022/11/27 09:17:30;;;;;;;;;6.50;6.00;;;;;20.09;57.43;102211.27;105653;1280;24697;-64
2022/11/27 09:19:58;;;;;;;;;;;;;;;20.08;57.45;102206.14;105686;1297;21590;-64
2022/11/27 09:22:25;;;;;;;;;8.00;7.00;;;;;20.06;57.37;102210.70;105671;1289;19203;-64
2022/11/27 09:24:53;;;;;;;;;5.00;5.00;;;;;20.04;57.61;102212.50;105652;1272;21332;-65
2022/11/27 09:27:20;;;;;;;;;;;;;;;20.05;57.42;102218.96;105627;1290;20306;-63
2022/11/27 09:29:48;;;;;;;;;4.00;4.00;;;;;20.04;57.50;102222.30;105684;1275;19768;-64
2022/11/27 09:32:16;;;;;;;;;;;;;;;20.03;57.37;102227.63;105636;1295;23221;-64
2022/11/27 09:34:43;;;;;;;;;4.00;4.00;;;;;20.03;57.43;102225.86;105645;1289;23378;-63
2022/11/27 09:37:11;;;;;;;;;;;;;;;20.02;57.42;102223.36;105629;1279;19220;-63
2022/11/27 09:39:38;;;;;;;;;5.00;5.00;;;;;20.00;57.25;102215.34;105734;1279;19257;-64
2022/11/27 09:42:07;;;;;;;;;5.00;5.00;;;;;20.02;57.39;102214.11;105507;1279;20118;-65
2022/11/27 09:44:35;;;;;;;;;11.00;10.00;;;;;20.08;57.07;102213.22;105606;1271;22068;-65
2022/11/27 09:47:03;;;;;;;;;66.50;50.50;;;;;20.11;56.96;102213.30;105628;1280;22959;-64
2022/11/27 09:49:30;;;;;;;;;62.00;44.00;;;;;20.15;56.87;102211.30;105565;1279;21743;-64
2022/11/27 09:51:58;;;;;;;;;81.00;58.00;;;;;20.16;56.61;102210.89;105559;1275;21322;-63
2022/11/27 09:54:26;;;;;;;;;67.00;51.00;;;;;20.14;56.58;102207.56;105562;1279;19567;-64
2022/11/27 09:56:53;;;;;;;;;56.00;45.00;;;;;20.14;57.09;102214.86;105668;1271;20089;-62
2022/11/27 09:59:20;;;;;;;;;46.00;40.00;;;;;20.16;57.28;102215.98;105595;1281;19908;-62
2022/11/27 10:01:48;;;;;;;;;40.00;34.00;;;;;20.16;57.26;102209.93;105675;1282;19605;-62
2022/11/27 10:04:15;;;;;;;;;43.00;33.00;;;;;20.17;57.42;102208.63;105522;1294;21520;-63
2022/11/27 10:06:43;;;;;;;;;38.00;30.50;;;;;20.19;57.57;102202.40;105593;1272;19957;-63
2022/11/27 10:09:11;;;;;;;;;30.00;25.00;;;;;20.20;57.58;102202.72;105630;1279;20823;-64
2022/11/27 10:11:39;;;;;;;;;30.00;20.00;;;;;20.19;57.60;102200.45;105631;1289;23098;-62
2022/11/27 10:14:06;;;;;;;;;25.00;22.00;;;;;20.19;57.72;102201.14;105622;1297;22111;-62
2022/11/27 10:16:34;;;;;;;;;18.00;15.00;;;;;20.20;57.63;102202.20;105690;1290;19882;-62
2022/11/27 10:19:01;;;;;;;;;24.00;19.00;;;;;20.20;57.87;102200.34;105691;1279;20511;-63
2022/11/27 10:21:29;;;;;;;;;18.00;14.00;;;;;20.20;57.96;102198.90;105652;1289;23788;-63
2022/11/27 10:23:56;;;;;;;;;19.00;12.00;;;;;20.20;58.14;102200.30;105628;1297;21087;-63
2022/11/27 10:26:23;;;;;;;;;16.50;13.00;;;;;20.22;58.20;102195.45;105624;1297;21714;-62
2022/11/27 10:28:51;;;;;;;;;14.50;13.50;;;;;20.21;58.14;102189.67;105689;1297;21407;-62
2022/11/27 10:31:18;;;;;;;;;14.00;12.00;;;;;20.22;58.26;102183.50;105660;1281;19324;-62
2022/11/27 10:33:46;;;;;;;;;15.00;12.00;;;;;20.22;58.12;102188.21;105569;1274;21834;-62
2022/11/27 10:36:13;;;;;;;;;10.50;8.00;;;;;20.22;58.30;102186.20;105550;1272;19938;-63
2022/11/27 10:38:41;;;;;;;;;14.00;11.00;;;;;20.21;58.04;102183.75;105626;1279;19319;-63
2022/11/27 10:41:08;;;;;;;;;12.00;10.00;;;;;20.19;58.03;102175.73;105646;1281;21712;-63
2022/11/27 10:43:35;;;;;;;;;9.00;8.00;;;;;20.18;57.96;102178.94;105638;1282;19569;-63
2022/11/27 10:46:03;;;;;;;;;10.00;9.00;;;;;20.18;57.78;102183.80;105490;1288;19287;-62
2022/11/27 10:48:30;;;;;;;;;11.00;9.00;;;;;20.18;57.59;102183.80;105578;1279;21549;-61
2022/11/27 10:50:59;;;;;;;;;14.00;12.00;;;;;20.18;57.51;102188.40;105578;1279;23161;-62
2022/11/27 10:53:26;;;;;;;;;9.50;7.50;;;;;20.18;57.56;102188.35;105533;1297;23040;-64
2022/11/27 10:55:54;;;;;;;;;5.00;5.00;;;;;20.20;57.70;102186.34;105592;1280;21511;-63
2022/11/27 10:58:22;;;;;;;;;10.00;7.00;;;;;20.20;57.63;102182.57;105527;1291;19122;-63
2022/11/27 11:00:49;;;;;;;;;12.00;8.00;;;;;20.19;57.85;102183.95;105590;1282;20809;-63
2022/11/27 11:03:17;;;;;;;;;7.00;7.00;;;;;20.18;57.92;102179.96;105575;1297;21572;-63
2022/11/27 11:05:44;;;;;;;;;12.00;10.00;;;;;20.19;57.75;102177.96;105575;1271;24081;-63
2022/11/27 11:08:11;;;;;;;;;11.50;8.00;;;;;20.18;58.08;102178.22;105613;1279;19481;-64
2022/11/27 11:10:39;;;;;;;;;10.00;8.00;;;;;20.17;57.63;102173.59;105603;1295;21472;-64
2022/11/27 11:13:06;;;;;;;;;9.00;8.00;;;;;20.17;57.77;102170.48;105574;1271;20025;-63
2022/11/27 11:15:34;;;;;;;;;7.00;5.00;;;;;20.19;57.49;102167.61;105668;1279;19331;-62
2022/11/27 11:18:01;;;;;;;;;11.00;10.00;;;;;20.18;57.40;102164.09;105664;1297;20085;-62
2022/11/27 11:20:28;;;;;;;;;10.50;7.00;;;;;20.19;57.68;102159.81;105561;1279;19298;-62
2022/11/27 11:22:56;;;;;;;;;5.00;5.00;;;;;20.18;57.35;102157.33;105629;1279;19455;-61